sensor_id;sensor_type;location;lat;lon;timestamp;P1;durP1;ratioP1;P2;durP2;ratioP2
43086;SDS011;28708;52.224;6.924;2022-07-29T00:00:53;4.07;;;1.10;;
43086;SDS011;28708;52.224;6.924;2022-07-29T00:03:18;5.00;;;1.10;;
43086;SDS011;28708;52.224;6.924;2022-07-29T00:05:44;3.23;;;1.20;;
43086;SDS011;28708;52.224;6.924;2022-07-29T00:08:10;3.77;;;1.10;;
43086;SDS011;28708;52.224;6.924;2022-07-29T00:10:37;5.93;;;1.23;;
43086;SDS011;28708;52.224;6.924;2022-07-29T00:13:03;2.87;;;0.90;;
43086;SDS011;28708;52.224;6.924;2022-07-29T00:15:28;5.40;;;1.40;;
43086;SDS011;28708;52.224;6.924;2022-07-29T00:17:54;4.43;;;1.40;;
43086;SDS011;28708;52.224;6.924;2022-07-29T00:20:20;6.20;;;1.50;;
43086;SDS011;28708;52.224;6.924;2022-07-29T00:22:46;3.40;;;1.27;;
43086;SDS011;28708;52.224;6.924;2022-07-29T00:25:12;3.03;;;1.13;;
43086;SDS011;28708;52.224;6.924;2022-07-29T00:27:38;5.93;;;1.33;;
43086;SDS011;28708;52.224;6.924;2022-07-29T00:30:05;3.20;;;1.27;;
43086;SDS011;28708;52.224;6.924;2022-07-29T00:32:31;6.53;;;1.40;;
43086;SDS011;28708;52.224;6.924;2022-07-29T00:34:57;3.67;;;1.50;;
43086;SDS011;28708;52.224;6.924;2022-07-29T00:37:41;4.63;;;1.40;;
43086;SDS011;28708;52.224;6.924;2022-07-29T00:40:07;2.60;;;1.23;;
43086;SDS011;28708;52.224;6.924;2022-07-29T00:42:43;6.27;;;1.77;;
43086;SDS011;28708;52.224;6.924;2022-07-29T00:45:13;4.63;;;1.52;;
43086;SDS011;28708;52.224;6.924;2022-07-29T00:47:40;4.77;;;1.60;;
43086;SDS011;28708;52.224;6.924;2022-07-29T00:50:06;3.87;;;1.10;;
43086;SDS011;28708;52.224;6.924;2022-07-29T00:52:34;3.73;;;1.50;;
43086;SDS011;28708;52.224;6.924;2022-07-29T00:55:02;5.03;;;1.73;;
43086;SDS011;28708;52.224;6.924;2022-07-29T00:57:29;5.20;;;1.50;;
43086;SDS011;28708;52.224;6.924;2022-07-29T00:59:55;4.17;;;1.50;;
43086;SDS011;28708;52.224;6.924;2022-07-29T01:02:21;5.00;;;1.57;;
43086;SDS011;28708;52.224;6.924;2022-07-29T01:04:48;4.30;;;1.70;;
43086;SDS011;28708;52.224;6.924;2022-07-29T01:07:15;10.93;;;1.83;;
43086;SDS011;28708;52.224;6.924;2022-07-29T01:09:42;4.03;;;1.47;;
43086;SDS011;28708;52.224;6.924;2022-07-29T01:12:10;5.90;;;1.63;;
43086;SDS011;28708;52.224;6.924;2022-07-29T01:14:38;6.70;;;1.50;;
43086;SDS011;28708;52.224;6.924;2022-07-29T01:17:16;8.93;;;1.80;;
43086;SDS011;28708;52.224;6.924;2022-07-29T01:25:48;4.27;;;1.50;;
43086;SDS011;28708;52.224;6.924;2022-07-29T01:30:46;4.70;;;1.60;;
43086;SDS011;28708;52.224;6.924;2022-07-29T01:33:15;4.63;;;1.50;;
43086;SDS011;28708;52.224;6.924;2022-07-29T01:36:05;5.05;;;1.92;;
43086;SDS011;28708;52.224;6.924;2022-07-29T01:38:38;5.37;;;1.57;;
43086;SDS011;28708;52.224;6.924;2022-07-29T01:41:07;6.13;;;1.80;;
43086;SDS011;28708;52.224;6.924;2022-07-29T01:43:38;5.83;;;1.63;;
43086;SDS011;28708;52.224;6.924;2022-07-29T01:46:11;5.90;;;1.60;;
43086;SDS011;28708;52.224;6.924;2022-07-29T01:48:45;5.57;;;1.40;;
43086;SDS011;28708;52.224;6.924;2022-07-29T01:51:14;7.25;;;1.90;;
43086;SDS011;28708;52.224;6.924;2022-07-29T01:56:39;5.77;;;1.50;;
43086;SDS011;28708;52.224;6.924;2022-07-29T01:59:08;6.90;;;1.60;;
43086;SDS011;28708;52.224;6.924;2022-07-29T02:01:35;7.83;;;1.60;;
43086;SDS011;28708;52.224;6.924;2022-07-29T02:04:03;3.70;;;1.20;;
43086;SDS011;28708;52.224;6.924;2022-07-29T02:06:32;5.03;;;1.40;;
43086;SDS011;28708;52.224;6.924;2022-07-29T02:09:00;4.10;;;1.50;;
43086;SDS011;28708;52.224;6.924;2022-07-29T02:11:27;4.80;;;1.50;;
43086;SDS011;28708;52.224;6.924;2022-07-29T02:13:56;5.43;;;1.77;;
43086;SDS011;28708;52.224;6.924;2022-07-29T02:16:23;4.40;;;1.30;;
43086;SDS011;28708;52.224;6.924;2022-07-29T02:18:52;5.17;;;1.57;;
43086;SDS011;28708;52.224;6.924;2022-07-29T02:21:19;3.97;;;1.33;;
43086;SDS011;28708;52.224;6.924;2022-07-29T02:23:49;3.73;;;1.40;;
43086;SDS011;28708;52.224;6.924;2022-07-29T02:26:19;6.17;;;1.50;;
43086;SDS011;28708;52.224;6.924;2022-07-29T02:28:47;6.87;;;1.67;;
43086;SDS011;28708;52.224;6.924;2022-07-29T02:31:15;5.30;;;1.57;;
43086;SDS011;28708;52.224;6.924;2022-07-29T02:33:44;5.72;;;1.80;;
43086;SDS011;28708;52.224;6.924;2022-07-29T02:36:13;4.77;;;1.50;;
43086;SDS011;28708;52.224;6.924;2022-07-29T02:38:40;5.60;;;1.60;;
43086;SDS011;28708;52.224;6.924;2022-07-29T02:41:18;5.00;;;1.37;;
43086;SDS011;28708;52.224;6.924;2022-07-29T02:43:50;6.07;;;1.50;;
43086;SDS011;28708;52.224;6.924;2022-07-29T02:46:24;5.37;;;1.70;;
43086;SDS011;28708;52.224;6.924;2022-07-29T02:49:13;6.17;;;1.60;;
43086;SDS011;28708;52.224;6.924;2022-07-29T02:52:00;5.87;;;1.60;;
43086;SDS011;28708;52.224;6.924;2022-07-29T02:57:32;6.53;;;2.10;;
43086;SDS011;28708;52.224;6.924;2022-07-29T03:00:03;5.07;;;1.50;;
43086;SDS011;28708;52.224;6.924;2022-07-29T03:02:41;4.65;;;1.55;;
43086;SDS011;28708;52.224;6.924;2022-07-29T03:05:11;3.27;;;1.50;;
43086;SDS011;28708;52.224;6.924;2022-07-29T03:07:43;3.83;;;1.40;;
43086;SDS011;28708;52.224;6.924;2022-07-29T03:10:14;5.80;;;1.60;;
43086;SDS011;28708;52.224;6.924;2022-07-29T03:12:41;4.83;;;1.70;;
43086;SDS011;28708;52.224;6.924;2022-07-29T03:15:07;4.30;;;1.90;;
43086;SDS011;28708;52.224;6.924;2022-07-29T03:17:34;4.67;;;1.57;;
43086;SDS011;28708;52.224;6.924;2022-07-29T03:20:01;3.10;;;1.40;;
43086;SDS011;28708;52.224;6.924;2022-07-29T03:22:28;3.17;;;1.37;;
43086;SDS011;28708;52.224;6.924;2022-07-29T03:24:54;4.90;;;1.60;;
43086;SDS011;28708;52.224;6.924;2022-07-29T03:27:20;4.27;;;1.50;;
43086;SDS011;28708;52.224;6.924;2022-07-29T03:29:46;4.13;;;1.50;;
43086;SDS011;28708;52.224;6.924;2022-07-29T03:32:12;5.77;;;1.40;;
43086;SDS011;28708;52.224;6.924;2022-07-29T03:34:37;6.03;;;1.40;;
43086;SDS011;28708;52.224;6.924;2022-07-29T03:37:04;4.30;;;1.57;;
43086;SDS011;28708;52.224;6.924;2022-07-29T03:39:31;6.80;;;1.43;;
43086;SDS011;28708;52.224;6.924;2022-07-29T03:42:02;2.73;;;1.10;;
43086;SDS011;28708;52.224;6.924;2022-07-29T03:44:29;4.60;;;1.60;;
43086;SDS011;28708;52.224;6.924;2022-07-29T03:46:57;6.57;;;1.80;;
43086;SDS011;28708;52.224;6.924;2022-07-29T03:51:52;7.83;;;1.70;;
43086;SDS011;28708;52.224;6.924;2022-07-29T03:54:19;3.00;;;1.50;;
43086;SDS011;28708;52.224;6.924;2022-07-29T03:56:45;6.07;;;1.50;;
43086;SDS011;28708;52.224;6.924;2022-07-29T03:59:14;4.97;;;1.70;;
43086;SDS011;28708;52.224;6.924;2022-07-29T04:01:41;5.07;;;1.77;;
43086;SDS011;28708;52.224;6.924;2022-07-29T04:04:07;6.97;;;1.50;;
43086;SDS011;28708;52.224;6.924;2022-07-29T04:06:40;5.77;;;1.73;;
43086;SDS011;28708;52.224;6.924;2022-07-29T04:09:07;4.73;;;1.53;;
43086;SDS011;28708;52.224;6.924;2022-07-29T04:11:33;5.93;;;1.50;;
43086;SDS011;28708;52.224;6.924;2022-07-29T04:14:01;4.67;;;1.43;;
43086;SDS011;28708;52.224;6.924;2022-07-29T04:16:26;6.73;;;1.63;;
43086;SDS011;28708;52.224;6.924;2022-07-29T04:18:52;4.77;;;1.93;;
43086;SDS011;28708;52.224;6.924;2022-07-29T04:21:18;4.37;;;1.40;;
43086;SDS011;28708;52.224;6.924;2022-07-29T04:23:44;4.43;;;1.53;;
43086;SDS011;28708;52.224;6.924;2022-07-29T04:26:14;4.93;;;1.63;;
43086;SDS011;28708;52.224;6.924;2022-07-29T04:28:43;6.88;;;2.17;;
43086;SDS011;28708;52.224;6.924;2022-07-29T04:31:10;5.30;;;1.33;;
43086;SDS011;28708;52.224;6.924;2022-07-29T04:33:37;7.13;;;1.60;;
43086;SDS011;28708;52.224;6.924;2022-07-29T04:36:02;4.03;;;1.53;;
43086;SDS011;28708;52.224;6.924;2022-07-29T04:38:28;6.00;;;1.50;;
43086;SDS011;28708;52.224;6.924;2022-07-29T04:40:54;4.03;;;1.30;;
43086;SDS011;28708;52.224;6.924;2022-07-29T04:43:20;6.43;;;1.90;;
43086;SDS011;28708;52.224;6.924;2022-07-29T04:45:46;4.00;;;1.70;;
43086;SDS011;28708;52.224;6.924;2022-07-29T04:48:12;4.27;;;1.53;;
43086;SDS011;28708;52.224;6.924;2022-07-29T04:50:38;3.93;;;1.80;;
43086;SDS011;28708;52.224;6.924;2022-07-29T04:53:05;4.33;;;1.70;;
43086;SDS011;28708;52.224;6.924;2022-07-29T04:55:31;6.97;;;1.90;;
43086;SDS011;28708;52.224;6.924;2022-07-29T04:57:56;9.87;;;2.13;;
43086;SDS011;28708;52.224;6.924;2022-07-29T05:00:22;4.73;;;1.87;;
43086;SDS011;28708;52.224;6.924;2022-07-29T05:02:48;5.57;;;1.70;;
43086;SDS011;28708;52.224;6.924;2022-07-29T05:05:14;4.17;;;1.53;;
43086;SDS011;28708;52.224;6.924;2022-07-29T05:07:40;3.60;;;1.67;;
43086;SDS011;28708;52.224;6.924;2022-07-29T05:10:06;4.33;;;1.53;;
43086;SDS011;28708;52.224;6.924;2022-07-29T05:12:33;6.27;;;1.90;;
43086;SDS011;28708;52.224;6.924;2022-07-29T05:14:59;4.10;;;1.40;;
43086;SDS011;28708;52.224;6.924;2022-07-29T05:17:25;4.37;;;1.60;;
43086;SDS011;28708;52.224;6.924;2022-07-29T05:19:50;4.67;;;1.67;;
43086;SDS011;28708;52.224;6.924;2022-07-29T05:22:20;5.90;;;1.60;;
43086;SDS011;28708;52.224;6.924;2022-07-29T05:24:46;8.55;;;1.83;;
43086;SDS011;28708;52.224;6.924;2022-07-29T05:27:12;7.17;;;2.03;;
43086;SDS011;28708;52.224;6.924;2022-07-29T05:29:38;4.53;;;1.80;;
43086;SDS011;28708;52.224;6.924;2022-07-29T05:32:04;4.53;;;1.80;;
43086;SDS011;28708;52.224;6.924;2022-07-29T05:34:30;6.30;;;1.70;;
43086;SDS011;28708;52.224;6.924;2022-07-29T05:36:56;3.37;;;1.90;;
43086;SDS011;28708;52.224;6.924;2022-07-29T05:39:23;7.60;;;1.80;;
43086;SDS011;28708;52.224;6.924;2022-07-29T05:41:49;5.37;;;1.73;;
43086;SDS011;28708;52.224;6.924;2022-07-29T05:44:14;6.13;;;1.80;;
43086;SDS011;28708;52.224;6.924;2022-07-29T05:46:40;4.93;;;1.70;;
43086;SDS011;28708;52.224;6.924;2022-07-29T05:49:06;8.00;;;1.80;;
43086;SDS011;28708;52.224;6.924;2022-07-29T05:51:33;3.77;;;1.70;;
43086;SDS011;28708;52.224;6.924;2022-07-29T05:53:59;6.63;;;1.73;;
43086;SDS011;28708;52.224;6.924;2022-07-29T05:56:25;5.70;;;1.77;;
43086;SDS011;28708;52.224;6.924;2022-07-29T05:58:50;5.30;;;1.70;;
43086;SDS011;28708;52.224;6.924;2022-07-29T06:01:16;6.37;;;1.60;;
43086;SDS011;28708;52.224;6.924;2022-07-29T06:03:42;6.87;;;1.70;;
43086;SDS011;28708;52.224;6.924;2022-07-29T06:06:08;6.43;;;1.67;;
43086;SDS011;28708;52.224;6.924;2022-07-29T06:08:34;4.57;;;1.70;;
43086;SDS011;28708;52.224;6.924;2022-07-29T06:11:01;6.03;;;1.80;;
43086;SDS011;28708;52.224;6.924;2022-07-29T06:13:28;4.37;;;1.83;;
43086;SDS011;28708;52.224;6.924;2022-07-29T06:15:54;5.73;;;1.87;;
43086;SDS011;28708;52.224;6.924;2022-07-29T06:18:20;6.57;;;1.80;;
43086;SDS011;28708;52.224;6.924;2022-07-29T06:20:49;3.73;;;1.70;;
43086;SDS011;28708;52.224;6.924;2022-07-29T06:23:16;4.93;;;1.63;;
43086;SDS011;28708;52.224;6.924;2022-07-29T06:25:42;3.43;;;1.83;;
43086;SDS011;28708;52.224;6.924;2022-07-29T06:28:08;4.87;;;1.70;;
43086;SDS011;28708;52.224;6.924;2022-07-29T06:30:34;3.87;;;1.77;;
43086;SDS011;28708;52.224;6.924;2022-07-29T06:33:00;8.23;;;1.80;;
43086;SDS011;28708;52.224;6.924;2022-07-29T06:35:27;5.13;;;1.93;;
43086;SDS011;28708;52.224;6.924;2022-07-29T06:37:53;6.63;;;1.77;;
43086;SDS011;28708;52.224;6.924;2022-07-29T06:40:19;4.73;;;1.70;;
43086;SDS011;28708;52.224;6.924;2022-07-29T06:43:03;4.43;;;1.73;;
43086;SDS011;28708;52.224;6.924;2022-07-29T06:45:30;5.63;;;2.00;;
43086;SDS011;28708;52.224;6.924;2022-07-29T06:47:59;6.90;;;1.90;;
43086;SDS011;28708;52.224;6.924;2022-07-29T06:50:25;6.57;;;2.30;;
43086;SDS011;28708;52.224;6.924;2022-07-29T06:52:50;8.67;;;2.70;;
43086;SDS011;28708;52.224;6.924;2022-07-29T06:55:16;7.40;;;2.33;;
43086;SDS011;28708;52.224;6.924;2022-07-29T06:57:44;4.50;;;1.90;;
43086;SDS011;28708;52.224;6.924;2022-07-29T07:00:11;9.57;;;2.20;;
43086;SDS011;28708;52.224;6.924;2022-07-29T07:02:38;6.63;;;2.07;;
43086;SDS011;28708;52.224;6.924;2022-07-29T07:05:04;6.57;;;2.40;;
43086;SDS011;28708;52.224;6.924;2022-07-29T07:07:30;6.93;;;2.40;;
43086;SDS011;28708;52.224;6.924;2022-07-29T07:09:56;6.70;;;2.00;;
43086;SDS011;28708;52.224;6.924;2022-07-29T07:12:22;10.40;;;2.30;;
43086;SDS011;28708;52.224;6.924;2022-07-29T07:14:48;9.60;;;2.50;;
43086;SDS011;28708;52.224;6.924;2022-07-29T07:17:14;8.27;;;2.47;;
43086;SDS011;28708;52.224;6.924;2022-07-29T07:19:40;6.60;;;2.50;;
43086;SDS011;28708;52.224;6.924;2022-07-29T07:22:05;10.77;;;2.33;;
43086;SDS011;28708;52.224;6.924;2022-07-29T07:24:31;8.30;;;2.63;;
43086;SDS011;28708;52.224;6.924;2022-07-29T07:26:57;3.40;;;2.10;;
43086;SDS011;28708;52.224;6.924;2022-07-29T07:29:23;5.50;;;2.30;;
43086;SDS011;28708;52.224;6.924;2022-07-29T07:31:49;5.73;;;2.20;;
43086;SDS011;28708;52.224;6.924;2022-07-29T07:34:15;4.73;;;2.00;;
43086;SDS011;28708;52.224;6.924;2022-07-29T07:36:40;7.00;;;3.10;;
43086;SDS011;28708;52.224;6.924;2022-07-29T07:39:06;6.70;;;2.37;;
43086;SDS011;28708;52.224;6.924;2022-07-29T07:41:32;7.87;;;2.50;;
43086;SDS011;28708;52.224;6.924;2022-07-29T07:43:58;6.00;;;2.40;;
43086;SDS011;28708;52.224;6.924;2022-07-29T07:46:24;13.33;;;3.80;;
43086;SDS011;28708;52.224;6.924;2022-07-29T07:48:50;5.47;;;2.20;;
43086;SDS011;28708;52.224;6.924;2022-07-29T07:51:17;6.63;;;2.33;;
43086;SDS011;28708;52.224;6.924;2022-07-29T07:53:43;9.47;;;2.50;;
43086;SDS011;28708;52.224;6.924;2022-07-29T07:56:10;7.70;;;2.70;;
43086;SDS011;28708;52.224;6.924;2022-07-29T07:58:35;6.30;;;2.43;;
43086;SDS011;28708;52.224;6.924;2022-07-29T08:01:02;7.10;;;2.73;;
43086;SDS011;28708;52.224;6.924;2022-07-29T08:03:28;15.17;;;7.77;;
43086;SDS011;28708;52.224;6.924;2022-07-29T08:05:54;7.43;;;2.70;;
43086;SDS011;28708;52.224;6.924;2022-07-29T08:08:20;7.93;;;2.80;;
43086;SDS011;28708;52.224;6.924;2022-07-29T08:10:45;6.20;;;2.57;;
43086;SDS011;28708;52.224;6.924;2022-07-29T08:13:18;7.60;;;2.73;;
43086;SDS011;28708;52.224;6.924;2022-07-29T08:15:48;7.33;;;2.70;;
43086;SDS011;28708;52.224;6.924;2022-07-29T08:18:28;6.37;;;2.43;;
43086;SDS011;28708;52.224;6.924;2022-07-29T08:20:54;6.43;;;2.63;;
43086;SDS011;28708;52.224;6.924;2022-07-29T08:23:21;5.77;;;2.73;;
43086;SDS011;28708;52.224;6.924;2022-07-29T08:25:48;7.33;;;2.70;;
43086;SDS011;28708;52.224;6.924;2022-07-29T08:28:15;6.17;;;2.73;;
43086;SDS011;28708;52.224;6.924;2022-07-29T08:30:41;10.57;;;2.47;;
43086;SDS011;28708;52.224;6.924;2022-07-29T08:33:07;6.50;;;2.97;;
43086;SDS011;28708;52.224;6.924;2022-07-29T08:35:33;9.67;;;2.90;;
43086;SDS011;28708;52.224;6.924;2022-07-29T08:37:59;6.30;;;2.97;;
43086;SDS011;28708;52.224;6.924;2022-07-29T08:40:25;7.17;;;2.57;;
43086;SDS011;28708;52.224;6.924;2022-07-29T08:42:51;7.03;;;2.87;;
43086;SDS011;28708;52.224;6.924;2022-07-29T08:45:17;5.40;;;2.70;;
43086;SDS011;28708;52.224;6.924;2022-07-29T08:47:44;7.33;;;2.83;;
43086;SDS011;28708;52.224;6.924;2022-07-29T08:50:10;7.17;;;2.77;;
43086;SDS011;28708;52.224;6.924;2022-07-29T08:52:37;6.83;;;2.70;;
43086;SDS011;28708;52.224;6.924;2022-07-29T08:55:08;7.90;;;2.90;;
43086;SDS011;28708;52.224;6.924;2022-07-29T09:00:02;7.93;;;3.30;;
43086;SDS011;28708;52.224;6.924;2022-07-29T09:02:33;6.67;;;2.70;;
43086;SDS011;28708;52.224;6.924;2022-07-29T09:05:04;4.83;;;2.50;;
43086;SDS011;28708;52.224;6.924;2022-07-29T09:07:30;4.27;;;2.33;;
43086;SDS011;28708;52.224;6.924;2022-07-29T09:09:57;6.37;;;2.70;;
43086;SDS011;28708;52.224;6.924;2022-07-29T09:12:24;5.40;;;2.43;;
43086;SDS011;28708;52.224;6.924;2022-07-29T09:14:50;5.83;;;2.87;;
43086;SDS011;28708;52.224;6.924;2022-07-29T09:17:17;6.03;;;2.90;;
43086;SDS011;28708;52.224;6.924;2022-07-29T09:19:43;8.80;;;3.00;;
43086;SDS011;28708;52.224;6.924;2022-07-29T09:22:08;8.93;;;2.70;;
43086;SDS011;28708;52.224;6.924;2022-07-29T09:24:44;10.77;;;2.77;;
43086;SDS011;28708;52.224;6.924;2022-07-29T09:27:22;9.10;;;2.90;;
43086;SDS011;28708;52.224;6.924;2022-07-29T09:32:26;8.53;;;3.30;;
43086;SDS011;28708;52.224;6.924;2022-07-29T09:35:13;6.63;;;2.90;;
43086;SDS011;28708;52.224;6.924;2022-07-29T09:37:41;10.15;;;3.20;;
43086;SDS011;28708;52.224;6.924;2022-07-29T09:40:14;6.13;;;3.17;;
43086;SDS011;28708;52.224;6.924;2022-07-29T09:42:47;5.97;;;3.53;;
43086;SDS011;28708;52.224;6.924;2022-07-29T09:45:26;11.13;;;3.30;;
43086;SDS011;28708;52.224;6.924;2022-07-29T09:47:54;7.17;;;3.30;;
43086;SDS011;28708;52.224;6.924;2022-07-29T09:50:22;7.30;;;3.43;;
43086;SDS011;28708;52.224;6.924;2022-07-29T09:52:59;10.23;;;3.47;;
43086;SDS011;28708;52.224;6.924;2022-07-29T09:55:25;5.53;;;3.27;;
43086;SDS011;28708;52.224;6.924;2022-07-29T09:57:51;10.90;;;3.30;;
43086;SDS011;28708;52.224;6.924;2022-07-29T10:00:17;6.57;;;3.73;;
43086;SDS011;28708;52.224;6.924;2022-07-29T10:02:45;11.40;;;3.27;;
43086;SDS011;28708;52.224;6.924;2022-07-29T10:05:22;11.27;;;3.53;;
43086;SDS011;28708;52.224;6.924;2022-07-29T10:07:50;9.07;;;3.43;;
43086;SDS011;28708;52.224;6.924;2022-07-29T10:12:51;5.97;;;3.10;;
43086;SDS011;28708;52.224;6.924;2022-07-29T10:15:24;10.47;;;4.13;;
43086;SDS011;28708;52.224;6.924;2022-07-29T10:17:52;12.17;;;4.47;;
43086;SDS011;28708;52.224;6.924;2022-07-29T10:20:19;9.10;;;3.50;;
43086;SDS011;28708;52.224;6.924;2022-07-29T10:22:46;7.23;;;4.17;;
43086;SDS011;28708;52.224;6.924;2022-07-29T10:25:14;10.40;;;3.90;;
43086;SDS011;28708;52.224;6.924;2022-07-29T10:27:41;10.83;;;4.90;;
43086;SDS011;28708;52.224;6.924;2022-07-29T10:30:07;7.50;;;4.37;;
43086;SDS011;28708;52.224;6.924;2022-07-29T10:32:37;7.00;;;4.30;;
43086;SDS011;28708;52.224;6.924;2022-07-29T10:38:43;7.63;;;4.43;;
43086;SDS011;28708;52.224;6.924;2022-07-29T10:44:01;10.03;;;4.47;;
43086;SDS011;28708;52.224;6.924;2022-07-29T10:46:37;10.83;;;4.77;;
43086;SDS011;28708;52.224;6.924;2022-07-29T11:07:25;13.60;;;4.90;;
43086;SDS011;28708;52.224;6.924;2022-07-29T11:12:56;11.03;;;4.90;;
43086;SDS011;28708;52.224;6.924;2022-07-29T11:15:22;7.63;;;5.20;;
43086;SDS011;28708;52.224;6.924;2022-07-29T11:20:36;11.53;;;5.20;;
43086;SDS011;28708;52.224;6.924;2022-07-29T11:28:48;9.37;;;5.10;;
43086;SDS011;28708;52.224;6.924;2022-07-29T11:39:33;8.97;;;4.80;;
43086;SDS011;28708;52.224;6.924;2022-07-29T11:47:24;8.93;;;4.97;;
43086;SDS011;28708;52.224;6.924;2022-07-29T11:49:52;8.63;;;4.97;;
43086;SDS011;28708;52.224;6.924;2022-07-29T11:52:19;9.97;;;4.40;;
43086;SDS011;28708;52.224;6.924;2022-07-29T11:54:50;10.70;;;4.80;;
43086;SDS011;28708;52.224;6.924;2022-07-29T11:57:19;11.27;;;4.90;;
43086;SDS011;28708;52.224;6.924;2022-07-29T11:59:46;10.20;;;5.30;;
43086;SDS011;28708;52.224;6.924;2022-07-29T12:02:13;7.03;;;4.53;;
43086;SDS011;28708;52.224;6.924;2022-07-29T12:04:56;10.13;;;4.87;;
43086;SDS011;28708;52.224;6.924;2022-07-29T12:07:29;9.20;;;4.93;;
43086;SDS011;28708;52.224;6.924;2022-07-29T12:09:55;9.73;;;4.13;;
43086;SDS011;28708;52.224;6.924;2022-07-29T12:12:22;9.17;;;4.30;;
43086;SDS011;28708;52.224;6.924;2022-07-29T12:14:48;7.73;;;4.93;;
43086;SDS011;28708;52.224;6.924;2022-07-29T12:17:30;8.70;;;4.90;;
43086;SDS011;28708;52.224;6.924;2022-07-29T12:19:58;10.80;;;4.80;;
43086;SDS011;28708;52.224;6.924;2022-07-29T12:24:55;9.27;;;4.33;;
43086;SDS011;28708;52.224;6.924;2022-07-29T12:27:27;9.30;;;4.50;;
43086;SDS011;28708;52.224;6.924;2022-07-29T12:29:56;13.07;;;4.30;;
43086;SDS011;28708;52.224;6.924;2022-07-29T12:32:30;12.27;;;4.67;;
43086;SDS011;28708;52.224;6.924;2022-07-29T12:35:04;7.73;;;3.33;;
43086;SDS011;28708;52.224;6.924;2022-07-29T12:37:32;7.53;;;3.50;;
43086;SDS011;28708;52.224;6.924;2022-07-29T12:40:03;5.33;;;3.23;;
43086;SDS011;28708;52.224;6.924;2022-07-29T12:42:30;7.83;;;3.77;;
43086;SDS011;28708;52.224;6.924;2022-07-29T12:44:57;10.00;;;3.80;;
43086;SDS011;28708;52.224;6.924;2022-07-29T12:47:23;10.03;;;3.90;;
43086;SDS011;28708;52.224;6.924;2022-07-29T12:49:49;5.37;;;3.10;;
43086;SDS011;28708;52.224;6.924;2022-07-29T12:54:57;8.17;;;3.37;;
43086;SDS011;28708;52.224;6.924;2022-07-29T12:57:23;7.40;;;2.70;;
43086;SDS011;28708;52.224;6.924;2022-07-29T13:00:06;7.97;;;2.97;;
43086;SDS011;28708;52.224;6.924;2022-07-29T13:02:36;7.10;;;2.40;;
43086;SDS011;28708;52.224;6.924;2022-07-29T13:05:03;8.83;;;2.50;;
43086;SDS011;28708;52.224;6.924;2022-07-29T13:07:31;7.10;;;2.87;;
43086;SDS011;28708;52.224;6.924;2022-07-29T13:10:18;4.97;;;2.10;;
43086;SDS011;28708;52.224;6.924;2022-07-29T13:15:53;5.70;;;2.25;;
43086;SDS011;28708;52.224;6.924;2022-07-29T13:18:32;6.10;;;2.35;;
43086;SDS011;28708;52.224;6.924;2022-07-29T13:21:14;7.75;;;2.30;;
43086;SDS011;28708;52.224;6.924;2022-07-29T13:23:41;8.48;;;2.45;;
43086;SDS011;28708;52.224;6.924;2022-07-29T13:26:08;7.88;;;2.47;;
43086;SDS011;28708;52.224;6.924;2022-07-29T13:28:34;9.55;;;2.42;;
43086;SDS011;28708;52.224;6.924;2022-07-29T13:31:00;9.13;;;2.35;;
43086;SDS011;28708;52.224;6.924;2022-07-29T13:33:26;6.68;;;2.53;;
43086;SDS011;28708;52.224;6.924;2022-07-29T13:35:52;4.93;;;1.75;;
43086;SDS011;28708;52.224;6.924;2022-07-29T13:38:18;8.50;;;2.35;;
43086;SDS011;28708;52.224;6.924;2022-07-29T13:40:44;8.57;;;2.30;;
43086;SDS011;28708;52.224;6.924;2022-07-29T13:43:10;5.82;;;2.55;;
43086;SDS011;28708;52.224;6.924;2022-07-29T13:45:36;5.60;;;2.30;;
43086;SDS011;28708;52.224;6.924;2022-07-29T13:48:02;4.50;;;2.22;;
43086;SDS011;28708;52.224;6.924;2022-07-29T13:50:28;6.07;;;2.22;;
43086;SDS011;28708;52.224;6.924;2022-07-29T13:52:54;4.82;;;2.30;;
43086;SDS011;28708;52.224;6.924;2022-07-29T13:55:20;6.07;;;2.20;;
43086;SDS011;28708;52.224;6.924;2022-07-29T13:57:46;7.22;;;2.28;;
43086;SDS011;28708;52.224;6.924;2022-07-29T14:00:14;5.18;;;2.13;;
43086;SDS011;28708;52.224;6.924;2022-07-29T14:02:41;9.50;;;2.55;;
43086;SDS011;28708;52.224;6.924;2022-07-29T14:05:07;5.45;;;2.15;;
43086;SDS011;28708;52.224;6.924;2022-07-29T14:07:38;5.47;;;2.20;;
43086;SDS011;28708;52.224;6.924;2022-07-29T14:10:04;8.77;;;2.55;;
43086;SDS011;28708;52.224;6.924;2022-07-29T14:12:31;9.48;;;2.88;;
43086;SDS011;28708;52.224;6.924;2022-07-29T14:14:56;9.30;;;2.35;;
43086;SDS011;28708;52.224;6.924;2022-07-29T14:17:22;6.60;;;2.25;;
43086;SDS011;28708;52.224;6.924;2022-07-29T14:19:49;7.03;;;2.58;;
43086;SDS011;28708;52.224;6.924;2022-07-29T14:22:15;5.15;;;2.20;;
43086;SDS011;28708;52.224;6.924;2022-07-29T14:24:44;9.13;;;2.42;;
43086;SDS011;28708;52.224;6.924;2022-07-29T14:27:10;5.47;;;2.25;;
43086;SDS011;28708;52.224;6.924;2022-07-29T14:29:36;11.38;;;2.40;;
43086;SDS011;28708;52.224;6.924;2022-07-29T14:32:03;14.32;;;2.60;;
43086;SDS011;28708;52.224;6.924;2022-07-29T14:34:32;13.30;;;2.83;;
43086;SDS011;28708;52.224;6.924;2022-07-29T14:36:58;6.72;;;2.70;;
43086;SDS011;28708;52.224;6.924;2022-07-29T14:39:24;8.75;;;2.92;;
43086;SDS011;28708;52.224;6.924;2022-07-29T14:41:50;9.32;;;2.30;;
43086;SDS011;28708;52.224;6.924;2022-07-29T14:44:16;7.32;;;1.85;;
43086;SDS011;28708;52.224;6.924;2022-07-29T14:46:43;8.30;;;2.30;;
43086;SDS011;28708;52.224;6.924;2022-07-29T14:49:09;7.80;;;1.98;;
43086;SDS011;28708;52.224;6.924;2022-07-29T14:51:35;7.05;;;2.10;;
43086;SDS011;28708;52.224;6.924;2022-07-29T14:54:01;7.72;;;2.20;;
43086;SDS011;28708;52.224;6.924;2022-07-29T14:56:27;6.22;;;2.08;;
43086;SDS011;28708;52.224;6.924;2022-07-29T14:58:55;7.00;;;2.10;;
43086;SDS011;28708;52.224;6.924;2022-07-29T15:01:22;6.60;;;2.03;;
43086;SDS011;28708;52.224;6.924;2022-07-29T15:03:49;5.78;;;2.00;;
43086;SDS011;28708;52.224;6.924;2022-07-29T15:06:15;6.32;;;1.95;;
43086;SDS011;28708;52.224;6.924;2022-07-29T15:08:41;9.07;;;2.25;;
43086;SDS011;28708;52.224;6.924;2022-07-29T15:11:07;8.60;;;2.70;;
43086;SDS011;28708;52.224;6.924;2022-07-29T15:13:33;7.90;;;2.08;;
43086;SDS011;28708;52.224;6.924;2022-07-29T15:16:02;8.05;;;2.33;;
43086;SDS011;28708;52.224;6.924;2022-07-29T15:18:29;9.23;;;2.22;;
43086;SDS011;28708;52.224;6.924;2022-07-29T15:20:55;6.53;;;1.90;;
43086;SDS011;28708;52.224;6.924;2022-07-29T15:23:21;5.32;;;2.05;;
43086;SDS011;28708;52.224;6.924;2022-07-29T15:25:47;4.55;;;1.90;;
43086;SDS011;28708;52.224;6.924;2022-07-29T15:28:12;8.88;;;2.20;;
43086;SDS011;28708;52.224;6.924;2022-07-29T15:30:38;8.15;;;2.35;;
43086;SDS011;28708;52.224;6.924;2022-07-29T15:33:07;10.37;;;2.37;;
43086;SDS011;28708;52.224;6.924;2022-07-29T15:35:35;5.45;;;1.73;;
43086;SDS011;28708;52.224;6.924;2022-07-29T15:38:01;8.88;;;2.15;;
43086;SDS011;28708;52.224;6.924;2022-07-29T15:40:29;7.80;;;2.25;;
43086;SDS011;28708;52.224;6.924;2022-07-29T15:42:55;6.03;;;2.05;;
43086;SDS011;28708;52.224;6.924;2022-07-29T15:45:22;10.07;;;2.50;;
43086;SDS011;28708;52.224;6.924;2022-07-29T15:47:48;9.10;;;2.10;;
43086;SDS011;28708;52.224;6.924;2022-07-29T15:50:14;5.93;;;2.22;;
43086;SDS011;28708;52.224;6.924;2022-07-29T15:52:41;5.68;;;1.98;;
43086;SDS011;28708;52.224;6.924;2022-07-29T15:55:07;6.15;;;1.85;;
43086;SDS011;28708;52.224;6.924;2022-07-29T15:57:33;7.15;;;1.80;;
43086;SDS011;28708;52.224;6.924;2022-07-29T15:59:59;5.88;;;1.75;;
43086;SDS011;28708;52.224;6.924;2022-07-29T16:02:25;7.80;;;1.90;;
43086;SDS011;28708;52.224;6.924;2022-07-29T16:04:51;5.03;;;2.20;;
43086;SDS011;28708;52.224;6.924;2022-07-29T16:07:17;5.82;;;2.03;;
43086;SDS011;28708;52.224;6.924;2022-07-29T16:09:43;5.65;;;1.70;;
43086;SDS011;28708;52.224;6.924;2022-07-29T16:12:09;5.03;;;2.10;;